IDOT BID ITEMS (Switch to TOLLWAY)

Show/Hide column: Pay Item # - Pay Item Description - Unit - County - Dist - Contract - Date
Pay Item # Pay Item Description Unit Quantity Award Unit Price County Dist Contract Date Bid Unit Prices:
40600990 TEMPORARY RAMP SQ YD 60 $1.00 PULASKI 9 78886 07/30/2021 $55.36, $1.00
40600990 TEMPORARY RAMP SQ YD 104 $48.48 CRAWFORD 7 74915 07/30/2021 $48.48, $20.00
40600990 TEMPORARY RAMP SQ YD 1,589 $0.01 MADISON 8 76P28 07/30/2021 $0.01, $0.01
40600990 TEMPORARY RAMP SQ YD 100 $0.01 FORD 3 87780 07/30/2021 $35.00, $0.01
40600990 TEMPORARY RAMP SQ YD 871 $45.75 JACKSON 9 78838 07/30/2021 $45.75, $5.00
40600990 TEMPORARY RAMP SQ YD 666 $10.88 JOHNSON 9 78863 07/30/2021 $28.89, $10.88
40600990 TEMPORARY RAMP SQ YD 50 $68.96 KNOX 4 89791 07/30/2021 $68.96
40600990 TEMPORARY RAMP SQ YD 1,060 $8.00 LASALLE 3 66K47 07/30/2021 $8.00, $23.00
40600990 TEMPORARY RAMP SQ YD 96 $25.00 WHITESIDE 2 64P92 07/30/2021 $48.00, $25.00, $30.00, $21.00
40600990 TEMPORARY RAMP SQ YD 873 $20.00 WHITESIDE 2 64M90 07/30/2021 $20.00, $14.00, $20.00
40600990 TEMPORARY RAMP SQ YD 13 $52.00 PEORIA 4 68799 07/30/2021 $230.00, $52.00
40600990 TEMPORARY RAMP SQ YD 486 $5.00 JACKSON 9 78865 07/30/2021 $33.48, $5.00
40600990 TEMPORARY RAMP SQ YD 382 $22.31 SALINE 9 78788 06/11/2021 $42.43, $22.31
40600990 TEMPORARY RAMP SQ YD 862 $40.28 HAMILTON 9 78810 06/11/2021 $40.28, $12.74
40600990 TEMPORARY RAMP SQ YD 203 $7.97 MACON 7 74462 06/11/2021 $7.97
40600990 TEMPORARY RAMP SQ YD 667 $12.15 SCOTT 6 72823 06/11/2021 $12.15
40600990 TEMPORARY RAMP SQ YD 88 $39.55 CLAY 7 74942 06/11/2021 $39.55
40600990 TEMPORARY RAMP SQ YD 252 $15.00 JACKSON 9 78660 06/11/2021 $43.42, $15.00
40600990 TEMPORARY RAMP SQ YD 381 $61.07 HENDERSON 4 68503 06/11/2021 $61.07
40600990 TEMPORARY RAMP SQ YD 324 $10.48 PULASKI 9 78852 06/11/2021 $41.07, $10.48
  • Showing 1 to 20 of 547 entries.